createdAt,value
2023-03-22T00:00:30.151Z,4.37
2023-03-22T00:03:33.011Z,5.20
2023-03-22T00:06:37.143Z,4.53
2023-03-22T00:09:39.944Z,4.77
2023-03-22T00:12:42.783Z,4.33
2023-03-22T00:15:48.619Z,4.90
2023-03-22T00:18:51.900Z,4.57
2023-03-22T00:21:56.286Z,4.80
2023-03-22T00:24:59.238Z,4.63
2023-03-22T00:28:02.057Z,5.10
2023-03-22T00:31:06.174Z,5.23
2023-03-22T00:34:09.268Z,4.73
2023-03-22T00:37:13.522Z,5.17
2023-03-22T00:40:18.288Z,4.37
2023-03-22T00:43:21.314Z,5.03
2023-03-22T00:46:24.200Z,4.47
2023-03-22T00:49:27.285Z,4.47
2023-03-22T00:52:31.428Z,4.40
2023-03-22T00:55:34.348Z,5.33
2023-03-22T00:58:37.223Z,4.73
2023-03-22T01:01:40.455Z,4.20
2023-03-22T01:04:46.251Z,4.73
2023-03-22T01:07:51.671Z,3.73
2023-03-22T01:10:54.484Z,3.93
2023-03-22T01:13:57.438Z,4.17
2023-03-22T01:17:00.377Z,4.53
2023-03-22T01:20:06.713Z,3.93
2023-03-22T01:23:10.871Z,4.53
2023-03-22T01:26:13.680Z,4.00
2023-03-22T01:29:16.768Z,4.30
2023-03-22T01:32:19.566Z,3.43
2023-03-22T01:35:22.604Z,3.77
2023-03-22T01:38:26.865Z,3.40
2023-03-22T01:41:29.845Z,3.57
2023-03-22T01:44:33.783Z,3.87
2023-03-22T01:47:36.773Z,4.20
2023-03-22T01:50:42.583Z,4.13
2023-03-22T01:53:51.151Z,4.00
2023-03-22T01:56:54.082Z,3.67
2023-03-22T01:59:57.495Z,3.67
2023-03-22T02:03:00.822Z,3.70
2023-03-22T02:06:04.089Z,4.40
2023-03-22T02:09:09.683Z,3.97
2023-03-22T02:12:21.498Z,3.83
2023-03-22T02:15:26.533Z,3.40
2023-03-22T02:18:44.386Z,4.10
2023-03-22T02:22:25.890Z,3.80
2023-03-22T02:26:04.149Z,3.87
2023-03-22T02:29:13.865Z,3.90
2023-03-22T02:32:33.521Z,4.07
2023-03-22T02:36:16.528Z,3.70
2023-03-22T02:39:32.735Z,3.73
2023-03-22T02:42:44.941Z,3.70
2023-03-22T02:45:52.103Z,3.83
2023-03-22T02:49:03.172Z,3.60
2023-03-22T02:52:17.558Z,3.77
2023-03-22T02:55:25.593Z,3.40
2023-03-22T02:58:31.934Z,3.07
2023-03-22T03:01:39.053Z,3.87
2023-03-22T03:04:46.172Z,4.57
2023-03-22T03:07:53.431Z,4.13
2023-03-22T03:10:57.648Z,3.50
2023-03-22T03:14:00.593Z,4.07
2023-03-22T03:17:14.019Z,4.30
2023-03-22T03:20:29.929Z,4.43
2023-03-22T03:23:43.317Z,3.97
2023-03-22T03:26:57.091Z,4.33
2023-03-22T03:30:04.123Z,4.17
2023-03-22T03:33:10.546Z,4.53
2023-03-22T03:36:17.654Z,4.43
2023-03-22T03:39:22.081Z,3.90
2023-03-22T03:42:29.086Z,4.10
2023-03-22T03:45:32.657Z,3.87
2023-03-22T03:48:39.840Z,4.63
2023-03-22T03:51:51.048Z,4.07
2023-03-22T03:54:55.092Z,3.93
2023-03-22T03:57:59.244Z,4.63
2023-03-22T04:01:03.949Z,3.53
2023-03-22T04:04:07.145Z,3.80
2023-03-22T04:07:10.367Z,4.07
2023-03-22T04:10:13.266Z,3.93
2023-03-22T04:13:17.540Z,4.10
2023-03-22T04:16:20.458Z,4.10
2023-03-22T04:19:23.606Z,4.57
2023-03-22T04:22:26.846Z,3.77
2023-03-22T04:25:30.417Z,4.60
2023-03-22T04:28:34.736Z,3.83
2023-03-22T04:31:39.008Z,4.00
2023-03-22T04:34:41.774Z,3.63
2023-03-22T04:37:45.608Z,4.50
2023-03-22T04:40:48.395Z,3.97
2023-03-22T04:43:52.865Z,3.63
2023-03-22T04:46:55.805Z,3.87
2023-03-22T04:49:58.571Z,3.93
2023-03-22T04:53:01.374Z,3.90
2023-03-22T04:56:05.533Z,4.13
2023-03-22T04:59:10.823Z,4.07
2023-03-22T05:02:13.660Z,3.93
2023-03-22T05:05:16.634Z,4.10
2023-03-22T05:08:19.952Z,3.47
2023-03-22T05:11:24.251Z,4.10
2023-03-22T05:14:28.555Z,4.33
2023-03-22T05:17:31.384Z,3.47
2023-03-22T05:20:34.519Z,3.60
2023-03-22T05:23:37.389Z,3.50
2023-03-22T05:26:42.440Z,3.43
2023-03-22T05:29:46.757Z,3.70
2023-03-22T05:32:50.298Z,3.43
2023-03-22T05:35:53.131Z,3.67
2023-03-22T05:38:56.111Z,3.50
2023-03-22T05:41:58.924Z,3.53
2023-03-22T05:45:03.026Z,3.23
2023-03-22T05:48:05.947Z,4.47
2023-03-22T05:51:13.067Z,4.17
2023-03-22T05:54:15.953Z,3.50
2023-03-22T05:57:19.002Z,3.27
2023-03-22T06:00:24.195Z,4.00
2023-03-22T06:03:27.064Z,3.63
2023-03-22T06:06:29.994Z,3.73
2023-03-22T06:09:32.919Z,3.30
2023-03-22T06:12:36.289Z,3.23
2023-03-22T06:15:40.574Z,3.37
2023-03-22T06:18:43.349Z,3.47
2023-03-22T06:21:46.133Z,3.33
2023-03-22T06:24:49.173Z,3.43
2023-03-22T06:27:51.952Z,3.37
2023-03-22T06:30:56.274Z,3.97
2023-03-22T06:33:59.116Z,3.87
2023-03-22T06:37:01.976Z,3.00
2023-03-22T06:40:05.536Z,3.57
2023-03-22T06:43:08.301Z,2.80
2023-03-22T06:46:12.481Z,3.27
2023-03-22T06:49:16.706Z,3.30
2023-03-22T06:52:19.825Z,2.57
2023-03-22T06:55:22.745Z,4.23
2023-03-22T06:58:25.687Z,2.90
2023-03-22T07:01:29.800Z,3.07
2023-03-22T07:04:33.077Z,3.10
2023-03-22T07:07:35.912Z,3.17
2023-03-22T07:10:39.117Z,2.60
2023-03-22T07:13:42.060Z,2.67
2023-03-22T07:16:46.176Z,3.10
2023-03-22T07:19:48.969Z,2.40
2023-03-22T07:22:52.066Z,3.13
2023-03-22T07:25:55.913Z,2.80
2023-03-22T07:28:59.145Z,2.60
2023-03-22T07:32:03.356Z,3.13
2023-03-22T07:35:06.898Z,2.37
2023-03-22T07:38:09.701Z,2.60
2023-03-22T07:41:12.496Z,2.93
2023-03-22T07:44:18.266Z,2.27
2023-03-22T07:47:39.473Z,2.40
2023-03-22T07:50:42.905Z,2.23
2023-03-22T07:53:45.696Z,2.17
2023-03-22T07:56:49.041Z,2.07
2023-03-22T07:59:51.866Z,2.60
2023-03-22T08:02:56.374Z,2.60
2023-03-22T08:06:03.754Z,3.30
2023-03-22T08:09:08.320Z,3.30
2023-03-22T08:12:11.242Z,3.13
2023-03-22T08:15:14.100Z,4.23
2023-03-22T08:18:18.430Z,3.77
2023-03-22T08:21:23.503Z,3.03
2023-03-22T08:24:26.391Z,3.47
2023-03-22T08:27:29.171Z,3.23
2023-03-22T08:30:32.060Z,3.33
2023-03-22T08:33:36.758Z,3.63
2023-03-22T08:36:39.737Z,3.50
2023-03-22T08:39:44.011Z,2.80
2023-03-22T08:42:46.780Z,3.53
2023-03-22T08:45:49.607Z,2.83
2023-03-22T08:48:53.777Z,3.43
2023-03-22T08:51:57.603Z,3.43
2023-03-22T08:55:01.198Z,3.00
2023-03-22T08:58:04.863Z,2.40
2023-03-22T09:01:07.971Z,2.00
2023-03-22T09:04:12.121Z,2.13
2023-03-22T09:07:15.033Z,2.37
2023-03-22T09:10:17.968Z,2.20
2023-03-22T09:13:21.669Z,2.33
2023-03-22T09:16:24.669Z,2.37
2023-03-22T09:19:29.084Z,2.60
2023-03-22T09:22:31.968Z,2.77
2023-03-22T09:25:35.018Z,2.80
2023-03-22T09:28:38.292Z,2.50
2023-03-22T09:31:41.318Z,2.20
2023-03-22T09:34:45.600Z,2.13
2023-03-22T09:37:53.039Z,2.20
2023-03-22T09:41:02.164Z,2.47
2023-03-22T09:44:07.752Z,2.27
2023-03-22T09:47:17.039Z,2.30
2023-03-22T09:50:24.223Z,2.67
2023-03-22T09:53:29.359Z,2.40
2023-03-22T09:56:33.285Z,2.17
2023-03-22T09:59:45.442Z,3.20
2023-03-22T10:02:55.870Z,2.07
2023-03-22T10:06:05.347Z,2.67
2023-03-22T10:09:14.456Z,2.23
2023-03-22T10:12:26.671Z,2.30
2023-03-22T10:15:34.201Z,1.83
2023-03-22T10:18:39.755Z,2.50
2023-03-22T10:21:45.284Z,2.53
2023-03-22T10:24:51.937Z,2.40
2023-03-22T10:27:54.867Z,2.10
2023-03-22T10:30:59.128Z,2.40
2023-03-22T10:34:06.600Z,2.27
2023-03-22T10:37:16.097Z,2.17
2023-03-22T10:40:21.252Z,2.23
2023-03-22T10:43:28.855Z,1.80
2023-03-22T10:46:37.373Z,2.20
2023-03-22T10:49:45.100Z,1.60
2023-03-22T10:52:52.497Z,1.37
2023-03-22T10:55:55.599Z,1.67
2023-03-22T10:58:58.963Z,1.40
2023-03-22T11:02:02.162Z,1.90
2023-03-22T11:05:07.085Z,1.95
2023-03-22T11:08:15.563Z,1.73
2023-03-22T11:11:24.325Z,1.77
2023-03-22T11:14:31.568Z,1.33
2023-03-22T11:17:38.255Z,1.55
2023-03-22T11:20:43.162Z,1.43
2023-03-22T11:23:56.344Z,1.90
2023-03-22T11:27:07.406Z,1.67
2023-03-22T11:30:21.097Z,1.88
2023-03-22T11:33:25.821Z,1.90
2023-03-22T11:36:29.594Z,1.58
2023-03-22T11:39:34.162Z,1.75
2023-03-22T11:42:37.194Z,2.08
2023-03-22T11:45:43.945Z,2.00
2023-03-22T11:48:48.406Z,2.35
2023-03-22T11:51:53.029Z,2.35
2023-03-22T11:54:59.573Z,2.13
2023-03-22T11:58:03.921Z,2.08
2023-03-22T12:01:08.690Z,2.08
2023-03-22T12:04:17.285Z,1.85
2023-03-22T12:07:24.502Z,1.85
2023-03-22T12:10:32.035Z,2.13
2023-03-22T12:13:44.252Z,2.28
2023-03-22T12:16:51.220Z,1.70
2023-03-22T12:20:00.402Z,1.50
2023-03-22T12:23:03.804Z,1.90
2023-03-22T12:26:13.906Z,1.77
2023-03-22T12:29:19.170Z,2.30
2023-03-22T12:32:26.303Z,2.20
2023-03-22T12:35:32.294Z,1.40
2023-03-22T12:38:41.261Z,1.83
2023-03-22T12:41:49.607Z,2.08
2023-03-22T12:45:04.545Z,1.80
2023-03-22T12:48:16.300Z,1.60
2023-03-22T12:51:19.229Z,1.70
2023-03-22T12:54:26.125Z,1.88
2023-03-22T12:57:30.560Z,1.10
2023-03-22T13:00:39.406Z,1.40
2023-03-22T13:03:47.859Z,1.10
2023-03-22T13:06:58.718Z,1.20
2023-03-22T13:10:22.440Z,1.17
2023-03-22T13:13:56.653Z,1.10
2023-03-22T13:17:01.470Z,1.13
2023-03-22T13:20:27.025Z,1.30
2023-03-22T13:23:29.827Z,1.00
2023-03-22T13:26:37.789Z,1.67
2023-03-22T13:29:43.048Z,1.25
2023-03-22T13:32:52.028Z,1.58
2023-03-22T13:35:58.813Z,1.40
2023-03-22T13:39:09.140Z,1.08
2023-03-22T13:42:21.019Z,0.70
2023-03-22T13:45:33.828Z,0.80
2023-03-22T13:48:54.703Z,0.93
2023-03-22T13:52:02.111Z,0.77
2023-03-22T13:55:15.201Z,0.73
2023-03-22T13:58:37.312Z,0.70
2023-03-22T14:01:47.548Z,1.02
2023-03-22T14:04:54.103Z,0.80
2023-03-22T14:07:59.357Z,0.80
2023-03-22T14:11:08.705Z,1.02
2023-03-22T14:14:14.321Z,1.00
2023-03-22T14:17:30.796Z,0.88
2023-03-22T14:20:37.466Z,1.10
